sensor_id;sensor_type;location;lat;lon;timestamp;P1;durP1;ratioP1;P2;durP2;ratioP2
48241;SDS011;34041;51.812;4.622;2022-08-19T00:00:55;6.75;;;4.13;;
48241;SDS011;34041;51.812;4.622;2022-08-19T00:04:00;4.40;;;3.73;;
48241;SDS011;34041;51.812;4.622;2022-08-19T00:07:00;6.68;;;4.72;;
48241;SDS011;34041;51.812;4.622;2022-08-19T00:10:01;6.30;;;5.03;;
48241;SDS011;34041;51.812;4.622;2022-08-19T00:13:01;5.07;;;4.53;;
48241;SDS011;34041;51.812;4.622;2022-08-19T00:16:01;5.18;;;4.00;;
48241;SDS011;34041;51.812;4.622;2022-08-19T00:19:02;4.65;;;3.75;;
48241;SDS011;34041;51.812;4.622;2022-08-19T00:22:02;6.60;;;4.70;;
48241;SDS011;34041;51.812;4.622;2022-08-19T00:25:03;5.95;;;5.20;;
48241;SDS011;34041;51.812;4.622;2022-08-19T00:28:04;5.18;;;4.15;;
48241;SDS011;34041;51.812;4.622;2022-08-19T00:31:05;5.47;;;4.18;;
48241;SDS011;34041;51.812;4.622;2022-08-19T00:34:05;5.82;;;4.07;;
48241;SDS011;34041;51.812;4.622;2022-08-19T00:37:06;5.70;;;3.77;;
48241;SDS011;34041;51.812;4.622;2022-08-19T00:40:06;4.80;;;3.47;;
48241;SDS011;34041;51.812;4.622;2022-08-19T00:43:10;5.20;;;3.78;;
48241;SDS011;34041;51.812;4.622;2022-08-19T00:46:10;4.82;;;3.92;;
48241;SDS011;34041;51.812;4.622;2022-08-19T00:52:50;5.35;;;3.90;;
48241;SDS011;34041;51.812;4.622;2022-08-19T00:55:51;4.65;;;3.55;;
48241;SDS011;34041;51.812;4.622;2022-08-19T00:58:53;6.78;;;5.18;;
48241;SDS011;34041;51.812;4.622;2022-08-19T01:01:54;4.85;;;3.85;;
48241;SDS011;34041;51.812;4.622;2022-08-19T01:04:54;7.47;;;4.50;;
48241;SDS011;34041;51.812;4.622;2022-08-19T01:07:56;4.85;;;4.38;;
48241;SDS011;34041;51.812;4.622;2022-08-19T01:10:57;11.18;;;6.22;;
48241;SDS011;34041;51.812;4.622;2022-08-19T01:13:58;8.52;;;6.00;;
48241;SDS011;34041;51.812;4.622;2022-08-19T01:16:58;7.13;;;5.67;;
48241;SDS011;34041;51.812;4.622;2022-08-19T01:20:00;8.98;;;7.35;;
48241;SDS011;34041;51.812;4.622;2022-08-19T01:23:00;8.63;;;7.43;;
48241;SDS011;34041;51.812;4.622;2022-08-19T01:26:00;8.75;;;6.95;;
48241;SDS011;34041;51.812;4.622;2022-08-19T01:29:00;11.07;;;8.67;;
48241;SDS011;34041;51.812;4.622;2022-08-19T01:32:01;11.00;;;9.93;;
48241;SDS011;34041;51.812;4.622;2022-08-19T01:35:02;9.20;;;8.30;;
48241;SDS011;34041;51.812;4.622;2022-08-19T01:38:04;8.80;;;7.90;;
48241;SDS011;34041;51.812;4.622;2022-08-19T01:41:07;8.13;;;7.25;;
48241;SDS011;34041;51.812;4.622;2022-08-19T01:44:08;6.60;;;5.90;;
48241;SDS011;34041;51.812;4.622;2022-08-19T01:47:09;8.82;;;7.35;;
48241;SDS011;34041;51.812;4.622;2022-08-19T01:50:09;9.90;;;8.60;;
48241;SDS011;34041;51.812;4.622;2022-08-19T01:53:10;9.95;;;8.68;;
48241;SDS011;34041;51.812;4.622;2022-08-19T01:56:11;7.30;;;6.30;;
48241;SDS011;34041;51.812;4.622;2022-08-19T01:59:12;7.83;;;7.13;;
48241;SDS011;34041;51.812;4.622;2022-08-19T02:02:14;9.52;;;7.30;;
48241;SDS011;34041;51.812;4.622;2022-08-19T02:05:14;10.32;;;9.20;;
48241;SDS011;34041;51.812;4.622;2022-08-19T02:08:16;10.75;;;9.52;;
48241;SDS011;34041;51.812;4.622;2022-08-19T02:11:21;11.30;;;10.13;;
48241;SDS011;34041;51.812;4.622;2022-08-19T02:14:22;8.43;;;7.53;;
48241;SDS011;34041;51.812;4.622;2022-08-19T02:17:22;9.10;;;7.97;;
48241;SDS011;34041;51.812;4.622;2022-08-19T02:20:22;11.60;;;9.83;;
48241;SDS011;34041;51.812;4.622;2022-08-19T02:23:22;12.57;;;11.10;;
48241;SDS011;34041;51.812;4.622;2022-08-19T02:26:23;15.00;;;12.37;;
48241;SDS011;34041;51.812;4.622;2022-08-19T02:29:23;14.52;;;12.30;;
48241;SDS011;34041;51.812;4.622;2022-08-19T02:32:23;12.57;;;9.90;;
48241;SDS011;34041;51.812;4.622;2022-08-19T02:35:23;16.47;;;13.97;;
48241;SDS011;34041;51.812;4.622;2022-08-19T02:38:24;14.20;;;12.63;;
48241;SDS011;34041;51.812;4.622;2022-08-19T02:41:28;12.13;;;10.50;;
48241;SDS011;34041;51.812;4.622;2022-08-19T02:44:28;15.07;;;13.50;;
48241;SDS011;34041;51.812;4.622;2022-08-19T02:47:28;18.47;;;15.10;;
48241;SDS011;34041;51.812;4.622;2022-08-19T02:50:29;16.80;;;12.30;;
48241;SDS011;34041;51.812;4.622;2022-08-19T02:53:29;17.85;;;14.25;;
48241;SDS011;34041;51.812;4.622;2022-08-19T02:56:29;15.03;;;13.47;;
48241;SDS011;34041;51.812;4.622;2022-08-19T02:59:30;16.83;;;14.80;;
48241;SDS011;34041;51.812;4.622;2022-08-19T03:02:31;19.52;;;15.77;;
48241;SDS011;34041;51.812;4.622;2022-08-19T03:05:31;16.17;;;13.07;;
48241;SDS011;34041;51.812;4.622;2022-08-19T03:08:31;17.60;;;14.80;;
48241;SDS011;34041;51.812;4.622;2022-08-19T03:11:32;15.02;;;13.40;;
48241;SDS011;34041;51.812;4.622;2022-08-19T03:14:33;18.15;;;15.00;;
48241;SDS011;34041;51.812;4.622;2022-08-19T03:17:34;16.77;;;14.98;;
48241;SDS011;34041;51.812;4.622;2022-08-19T03:20:39;18.48;;;16.60;;
48241;SDS011;34041;51.812;4.622;2022-08-19T03:23:39;21.08;;;17.63;;
48241;SDS011;34041;51.812;4.622;2022-08-19T03:26:40;20.55;;;18.40;;
48241;SDS011;34041;51.812;4.622;2022-08-19T03:29:41;26.38;;;21.38;;
48241;SDS011;34041;51.812;4.622;2022-08-19T03:32:41;20.83;;;18.63;;
48241;SDS011;34041;51.812;4.622;2022-08-19T03:35:41;25.15;;;18.90;;
48241;SDS011;34041;51.812;4.622;2022-08-19T03:38:46;26.50;;;20.93;;
48241;SDS011;34041;51.812;4.622;2022-08-19T03:41:50;22.02;;;19.08;;
48241;SDS011;34041;51.812;4.622;2022-08-19T03:44:51;21.85;;;19.00;;
48241;SDS011;34041;51.812;4.622;2022-08-19T03:47:51;25.83;;;21.73;;
48241;SDS011;34041;51.812;4.622;2022-08-19T03:50:51;23.52;;;20.90;;
48241;SDS011;34041;51.812;4.622;2022-08-19T03:53:52;27.07;;;22.23;;
48241;SDS011;34041;51.812;4.622;2022-08-19T03:56:53;27.92;;;22.40;;
48241;SDS011;34041;51.812;4.622;2022-08-19T03:59:54;22.63;;;18.73;;
48241;SDS011;34041;51.812;4.622;2022-08-19T04:02:54;24.57;;;21.90;;
48241;SDS011;34041;51.812;4.622;2022-08-19T04:05:54;27.00;;;22.90;;
48241;SDS011;34041;51.812;4.622;2022-08-19T04:08:55;24.23;;;21.43;;
48241;SDS011;34041;51.812;4.622;2022-08-19T04:11:56;24.65;;;20.73;;
48241;SDS011;34041;51.812;4.622;2022-08-19T04:14:57;19.58;;;16.08;;
48241;SDS011;34041;51.812;4.622;2022-08-19T04:17:58;19.65;;;17.45;;
48241;SDS011;34041;51.812;4.622;2022-08-19T04:20:58;20.53;;;17.70;;
48241;SDS011;34041;51.812;4.622;2022-08-19T04:23:59;21.13;;;17.95;;
48241;SDS011;34041;51.812;4.622;2022-08-19T04:27:00;19.80;;;16.42;;
48241;SDS011;34041;51.812;4.622;2022-08-19T04:30:00;18.55;;;16.55;;
48241;SDS011;34041;51.812;4.622;2022-08-19T04:33:00;19.63;;;17.50;;
48241;SDS011;34041;51.812;4.622;2022-08-19T04:36:00;17.73;;;15.63;;
48241;SDS011;34041;51.812;4.622;2022-08-19T04:39:03;19.33;;;16.50;;
48241;SDS011;34041;51.812;4.622;2022-08-19T04:42:04;18.35;;;15.07;;
48241;SDS011;34041;51.812;4.622;2022-08-19T04:45:22;19.50;;;15.70;;
48241;SDS011;34041;51.812;4.622;2022-08-19T04:48:23;17.63;;;14.32;;
48241;SDS011;34041;51.812;4.622;2022-08-19T04:51:26;15.27;;;13.68;;
48241;SDS011;34041;51.812;4.622;2022-08-19T04:54:26;18.45;;;14.50;;
48241;SDS011;34041;51.812;4.622;2022-08-19T04:57:27;16.20;;;14.60;;
48241;SDS011;34041;51.812;4.622;2022-08-19T05:00:27;14.00;;;12.23;;
48241;SDS011;34041;51.812;4.622;2022-08-19T05:03:27;15.52;;;13.45;;
48241;SDS011;34041;51.812;4.622;2022-08-19T05:06:33;15.65;;;13.18;;
48241;SDS011;34041;51.812;4.622;2022-08-19T05:09:33;12.38;;;11.15;;
48241;SDS011;34041;51.812;4.622;2022-08-19T05:12:34;12.82;;;11.52;;
48241;SDS011;34041;51.812;4.622;2022-08-19T05:15:34;13.93;;;11.25;;
48241;SDS011;34041;51.812;4.622;2022-08-19T05:18:35;14.25;;;11.18;;
48241;SDS011;34041;51.812;4.622;2022-08-19T05:21:54;11.68;;;9.65;;
48241;SDS011;34041;51.812;4.622;2022-08-19T05:25:14;10.52;;;8.90;;
48241;SDS011;34041;51.812;4.622;2022-08-19T05:28:19;11.90;;;10.65;;
48241;SDS011;34041;51.812;4.622;2022-08-19T05:31:19;11.13;;;9.95;;
48241;SDS011;34041;51.812;4.622;2022-08-19T05:34:21;14.23;;;11.68;;
48241;SDS011;34041;51.812;4.622;2022-08-19T05:37:22;17.95;;;15.05;;
48241;SDS011;34041;51.812;4.622;2022-08-19T05:40:23;16.10;;;14.45;;
48241;SDS011;34041;51.812;4.622;2022-08-19T05:43:23;22.60;;;17.00;;
48241;SDS011;34041;51.812;4.622;2022-08-19T05:46:24;21.17;;;16.60;;
48241;SDS011;34041;51.812;4.622;2022-08-19T05:49:25;18.60;;;16.00;;
48241;SDS011;34041;51.812;4.622;2022-08-19T05:52:25;29.77;;;17.73;;
48241;SDS011;34041;51.812;4.622;2022-08-19T05:55:27;22.92;;;17.42;;
48241;SDS011;34041;51.812;4.622;2022-08-19T05:58:27;27.93;;;18.57;;
48241;SDS011;34041;51.812;4.622;2022-08-19T06:01:27;24.40;;;15.93;;
48241;SDS011;34041;51.812;4.622;2022-08-19T06:04:27;23.03;;;16.93;;
48241;SDS011;34041;51.812;4.622;2022-08-19T06:07:28;22.52;;;17.77;;
48241;SDS011;34041;51.812;4.622;2022-08-19T06:10:28;24.70;;;18.20;;
48241;SDS011;34041;51.812;4.622;2022-08-19T06:13:29;26.58;;;18.23;;
48241;SDS011;34041;51.812;4.622;2022-08-19T06:16:30;25.73;;;17.65;;
48241;SDS011;34041;51.812;4.622;2022-08-19T06:19:31;22.35;;;19.65;;
48241;SDS011;34041;51.812;4.622;2022-08-19T06:22:31;26.07;;;17.57;;
48241;SDS011;34041;51.812;4.622;2022-08-19T06:25:37;24.88;;;17.08;;
48241;SDS011;34041;51.812;4.622;2022-08-19T06:28:39;25.75;;;18.58;;
48241;SDS011;34041;51.812;4.622;2022-08-19T06:31:44;29.58;;;18.08;;
48241;SDS011;34041;51.812;4.622;2022-08-19T06:34:45;25.60;;;18.45;;
48241;SDS011;34041;51.812;4.622;2022-08-19T06:37:46;26.20;;;17.20;;
48241;SDS011;34041;51.812;4.622;2022-08-19T06:40:46;24.48;;;17.77;;
48241;SDS011;34041;51.812;4.622;2022-08-19T06:43:47;22.77;;;17.03;;
48241;SDS011;34041;51.812;4.622;2022-08-19T06:46:49;20.77;;;17.15;;
48241;SDS011;34041;51.812;4.622;2022-08-19T06:49:49;21.48;;;18.05;;
48241;SDS011;34041;51.812;4.622;2022-08-19T06:52:49;20.90;;;16.10;;
48241;SDS011;34041;51.812;4.622;2022-08-19T06:55:49;24.92;;;17.27;;
48241;SDS011;34041;51.812;4.622;2022-08-19T06:58:57;24.77;;;15.93;;
48241;SDS011;34041;51.812;4.622;2022-08-19T07:01:59;21.67;;;14.00;;
48241;SDS011;34041;51.812;4.622;2022-08-19T07:04:59;16.33;;;13.02;;
48241;SDS011;34041;51.812;4.622;2022-08-19T07:08:02;19.75;;;13.85;;
48241;SDS011;34041;51.812;4.622;2022-08-19T07:11:06;25.63;;;16.40;;
48241;SDS011;34041;51.812;4.622;2022-08-19T07:14:06;18.38;;;13.43;;
48241;SDS011;34041;51.812;4.622;2022-08-19T07:17:09;21.63;;;15.50;;
48241;SDS011;34041;51.812;4.622;2022-08-19T07:20:10;24.08;;;14.43;;
48241;SDS011;34041;51.812;4.622;2022-08-19T07:23:11;20.15;;;13.13;;
48241;SDS011;34041;51.812;4.622;2022-08-19T07:26:14;16.85;;;13.50;;
48241;SDS011;34041;51.812;4.622;2022-08-19T07:29:14;16.35;;;12.60;;
48241;SDS011;34041;51.812;4.622;2022-08-19T07:32:16;18.67;;;12.85;;
48241;SDS011;34041;51.812;4.622;2022-08-19T07:35:16;21.93;;;13.87;;
48241;SDS011;34041;51.812;4.622;2022-08-19T07:38:19;16.92;;;12.55;;
48241;SDS011;34041;51.812;4.622;2022-08-19T07:41:21;21.98;;;12.45;;
48241;SDS011;34041;51.812;4.622;2022-08-19T07:44:22;15.88;;;11.82;;
48241;SDS011;34041;51.812;4.622;2022-08-19T07:47:23;17.65;;;14.25;;
48241;SDS011;34041;51.812;4.622;2022-08-19T07:50:23;16.73;;;12.00;;
48241;SDS011;34041;51.812;4.622;2022-08-19T07:53:24;18.60;;;12.47;;
48241;SDS011;34041;51.812;4.622;2022-08-19T07:56:24;22.83;;;11.38;;
48241;SDS011;34041;51.812;4.622;2022-08-19T07:59:24;15.23;;;12.45;;
48241;SDS011;34041;51.812;4.622;2022-08-19T08:02:25;14.18;;;12.00;;
48241;SDS011;34041;51.812;4.622;2022-08-19T08:05:25;15.30;;;12.02;;
48241;SDS011;34041;51.812;4.622;2022-08-19T08:08:43;11.68;;;9.70;;
48241;SDS011;34041;51.812;4.622;2022-08-19T08:12:14;16.83;;;12.57;;
48241;SDS011;34041;51.812;4.622;2022-08-19T08:15:15;16.23;;;10.88;;
48241;SDS011;34041;51.812;4.622;2022-08-19T08:18:16;18.38;;;12.77;;
48241;SDS011;34041;51.812;4.622;2022-08-19T08:21:17;14.43;;;12.70;;
48241;SDS011;34041;51.812;4.622;2022-08-19T08:24:17;16.40;;;12.10;;
48241;SDS011;34041;51.812;4.622;2022-08-19T08:27:17;16.75;;;12.07;;
48241;SDS011;34041;51.812;4.622;2022-08-19T08:30:19;19.95;;;11.93;;
48241;SDS011;34041;51.812;4.622;2022-08-19T08:33:23;16.50;;;12.02;;
48241;SDS011;34041;51.812;4.622;2022-08-19T08:36:23;16.67;;;12.15;;
48241;SDS011;34041;51.812;4.622;2022-08-19T08:39:25;16.38;;;11.60;;
48241;SDS011;34041;51.812;4.622;2022-08-19T08:42:32;12.67;;;10.07;;
48241;SDS011;34041;51.812;4.622;2022-08-19T08:45:35;13.57;;;10.23;;
48241;SDS011;34041;51.812;4.622;2022-08-19T08:48:44;15.35;;;10.75;;
48241;SDS011;34041;51.812;4.622;2022-08-19T08:51:47;10.15;;;8.60;;
48241;SDS011;34041;51.812;4.622;2022-08-19T08:54:48;13.18;;;9.65;;
48241;SDS011;34041;51.812;4.622;2022-08-19T09:01:10;12.35;;;9.18;;
48241;SDS011;34041;51.812;4.622;2022-08-19T09:04:11;16.52;;;8.90;;
48241;SDS011;34041;51.812;4.622;2022-08-19T09:10:18;12.63;;;7.83;;
48241;SDS011;34041;51.812;4.622;2022-08-19T09:13:38;12.50;;;8.48;;
48241;SDS011;34041;51.812;4.622;2022-08-19T09:16:41;11.20;;;7.40;;
48241;SDS011;34041;51.812;4.622;2022-08-19T09:19:55;10.50;;;8.33;;
48241;SDS011;34041;51.812;4.622;2022-08-19T09:25:56;11.00;;;7.97;;
48241;SDS011;34041;51.812;4.622;2022-08-19T09:28:56;9.45;;;7.30;;
48241;SDS011;34041;51.812;4.622;2022-08-19T09:31:58;11.27;;;8.20;;
48241;SDS011;34041;51.812;4.622;2022-08-19T09:34:58;12.47;;;11.00;;
48241;SDS011;34041;51.812;4.622;2022-08-19T09:38:00;11.05;;;7.47;;
48241;SDS011;34041;51.812;4.622;2022-08-19T09:41:07;13.60;;;9.77;;
48241;SDS011;34041;51.812;4.622;2022-08-19T09:44:07;12.88;;;8.02;;
48241;SDS011;34041;51.812;4.622;2022-08-19T09:47:08;10.87;;;7.97;;
48241;SDS011;34041;51.812;4.622;2022-08-19T09:50:09;14.38;;;8.23;;
48241;SDS011;34041;51.812;4.622;2022-08-19T09:53:10;10.70;;;7.43;;
48241;SDS011;34041;51.812;4.622;2022-08-19T09:56:11;13.13;;;7.83;;
48241;SDS011;34041;51.812;4.622;2022-08-19T09:59:12;7.40;;;6.35;;
48241;SDS011;34041;51.812;4.622;2022-08-19T10:02:12;11.68;;;7.13;;
48241;SDS011;34041;51.812;4.622;2022-08-19T10:05:13;8.20;;;6.75;;
48241;SDS011;34041;51.812;4.622;2022-08-19T10:08:33;10.20;;;7.20;;
48241;SDS011;34041;51.812;4.622;2022-08-19T10:11:34;11.95;;;8.77;;
48241;SDS011;34041;51.812;4.622;2022-08-19T10:14:34;10.43;;;6.80;;
48241;SDS011;34041;51.812;4.622;2022-08-19T10:17:35;9.45;;;6.30;;
48241;SDS011;34041;51.812;4.622;2022-08-19T10:20:35;7.97;;;6.40;;
48241;SDS011;34041;51.812;4.622;2022-08-19T10:23:36;6.83;;;5.93;;
48241;SDS011;34041;51.812;4.622;2022-08-19T10:26:37;7.45;;;6.18;;
48241;SDS011;34041;51.812;4.622;2022-08-19T10:29:37;9.32;;;7.15;;
48241;SDS011;34041;51.812;4.622;2022-08-19T10:32:38;12.97;;;7.83;;
48241;SDS011;34041;51.812;4.622;2022-08-19T10:35:38;12.50;;;11.30;;
48241;SDS011;34041;51.812;4.622;2022-08-19T10:38:38;13.23;;;10.93;;
48241;SDS011;34041;51.812;4.622;2022-08-19T10:41:39;10.07;;;9.07;;
48241;SDS011;34041;51.812;4.622;2022-08-19T10:44:40;14.80;;;10.70;;
48241;SDS011;34041;51.812;4.622;2022-08-19T10:47:40;12.68;;;10.18;;
48241;SDS011;34041;51.812;4.622;2022-08-19T10:50:40;10.53;;;8.97;;
48241;SDS011;34041;51.812;4.622;2022-08-19T10:53:59;10.10;;;8.73;;
48241;SDS011;34041;51.812;4.622;2022-08-19T10:56:59;10.13;;;8.25;;
48241;SDS011;34041;51.812;4.622;2022-08-19T10:59:59;8.20;;;6.60;;
48241;SDS011;34041;51.812;4.622;2022-08-19T11:03:00;8.63;;;6.63;;
48241;SDS011;34041;51.812;4.622;2022-08-19T11:06:01;9.43;;;7.32;;
48241;SDS011;34041;51.812;4.622;2022-08-19T11:09:02;9.10;;;6.57;;
48241;SDS011;34041;51.812;4.622;2022-08-19T11:12:02;8.23;;;7.38;;
48241;SDS011;34041;51.812;4.622;2022-08-19T11:15:03;9.65;;;7.03;;
48241;SDS011;34041;51.812;4.622;2022-08-19T11:18:03;9.00;;;6.47;;
48241;SDS011;34041;51.812;4.622;2022-08-19T11:21:11;10.60;;;7.63;;
48241;SDS011;34041;51.812;4.622;2022-08-19T11:24:13;10.23;;;9.23;;
48241;SDS011;34041;51.812;4.622;2022-08-19T11:27:15;8.70;;;7.85;;
48241;SDS011;34041;51.812;4.622;2022-08-19T11:30:15;9.17;;;7.57;;
48241;SDS011;34041;51.812;4.622;2022-08-19T11:33:15;11.30;;;8.45;;
48241;SDS011;34041;51.812;4.622;2022-08-19T11:36:16;10.20;;;7.47;;
48241;SDS011;34041;51.812;4.622;2022-08-19T11:39:17;10.18;;;8.20;;
48241;SDS011;34041;51.812;4.622;2022-08-19T11:42:18;10.52;;;9.50;;
48241;SDS011;34041;51.812;4.622;2022-08-19T11:45:37;11.43;;;8.77;;
48241;SDS011;34041;51.812;4.622;2022-08-19T11:48:37;12.47;;;8.77;;
48241;SDS011;34041;51.812;4.622;2022-08-19T11:51:38;10.63;;;9.05;;
48241;SDS011;34041;51.812;4.622;2022-08-19T11:54:38;9.75;;;8.80;;
48241;SDS011;34041;51.812;4.622;2022-08-19T11:57:38;12.93;;;8.53;;
48241;SDS011;34041;51.812;4.622;2022-08-19T12:00:41;9.55;;;8.25;;
48241;SDS011;34041;51.812;4.622;2022-08-19T12:03:41;11.02;;;9.82;;
48241;SDS011;34041;51.812;4.622;2022-08-19T12:06:41;11.35;;;8.45;;
48241;SDS011;34041;51.812;4.622;2022-08-19T12:09:42;9.57;;;8.53;;
48241;SDS011;34041;51.812;4.622;2022-08-19T12:12:42;10.68;;;9.57;;
48241;SDS011;34041;51.812;4.622;2022-08-19T12:15:46;11.73;;;10.18;;
48241;SDS011;34041;51.812;4.622;2022-08-19T12:18:47;10.55;;;9.45;;
48241;SDS011;34041;51.812;4.622;2022-08-19T12:21:47;10.52;;;9.48;;
48241;SDS011;34041;51.812;4.622;2022-08-19T12:24:48;10.88;;;9.68;;
48241;SDS011;34041;51.812;4.622;2022-08-19T12:27:50;12.65;;;10.77;;
48241;SDS011;34041;51.812;4.622;2022-08-19T12:30:50;12.60;;;11.20;;
48241;SDS011;34041;51.812;4.622;2022-08-19T12:33:51;13.07;;;11.65;;
48241;SDS011;34041;51.812;4.622;2022-08-19T12:36:52;12.35;;;11.15;;
48241;SDS011;34041;51.812;4.622;2022-08-19T12:39:52;10.73;;;9.60;;
48241;SDS011;34041;51.812;4.622;2022-08-19T12:42:53;11.83;;;10.23;;
48241;SDS011;34041;51.812;4.622;2022-08-19T12:45:53;10.77;;;9.52;;
48241;SDS011;34041;51.812;4.622;2022-08-19T12:48:53;10.93;;;9.73;;
48241;SDS011;34041;51.812;4.622;2022-08-19T12:51:54;11.15;;;8.70;;
48241;SDS011;34041;51.812;4.622;2022-08-19T12:54:55;10.77;;;9.67;;
48241;SDS011;34041;51.812;4.622;2022-08-19T12:57:56;11.10;;;9.70;;
48241;SDS011;34041;51.812;4.622;2022-08-19T13:00:56;11.93;;;10.02;;
48241;SDS011;34041;51.812;4.622;2022-08-19T13:03:56;14.43;;;10.07;;
48241;SDS011;34041;51.812;4.622;2022-08-19T13:06:57;11.30;;;9.57;;
48241;SDS011;34041;51.812;4.622;2022-08-19T13:09:57;10.38;;;9.18;;
48241;SDS011;34041;51.812;4.622;2022-08-19T13:12:57;10.27;;;9.18;;
48241;SDS011;34041;51.812;4.622;2022-08-19T13:16:00;10.75;;;8.35;;
48241;SDS011;34041;51.812;4.622;2022-08-19T13:19:02;10.70;;;7.85;;
48241;SDS011;34041;51.812;4.622;2022-08-19T13:22:04;11.10;;;7.68;;
48241;SDS011;34041;51.812;4.622;2022-08-19T13:25:05;9.02;;;7.35;;
48241;SDS011;34041;51.812;4.622;2022-08-19T13:28:05;7.63;;;6.78;;
48241;SDS011;34041;51.812;4.622;2022-08-19T13:31:06;11.38;;;8.77;;
48241;SDS011;34041;51.812;4.622;2022-08-19T13:34:30;10.25;;;8.68;;
48241;SDS011;34041;51.812;4.622;2022-08-19T13:37:30;9.45;;;8.45;;
48241;SDS011;34041;51.812;4.622;2022-08-19T13:40:43;10.55;;;9.50;;
48241;SDS011;34041;51.812;4.622;2022-08-19T13:43:43;11.13;;;9.82;;
48241;SDS011;34041;51.812;4.622;2022-08-19T13:46:44;11.47;;;9.13;;
48241;SDS011;34041;51.812;4.622;2022-08-19T13:49:44;13.15;;;10.32;;
48241;SDS011;34041;51.812;4.622;2022-08-19T13:52:44;9.23;;;8.30;;
48241;SDS011;34041;51.812;4.622;2022-08-19T13:55:44;10.03;;;7.67;;
48241;SDS011;34041;51.812;4.622;2022-08-19T13:58:45;9.25;;;7.90;;
48241;SDS011;34041;51.812;4.622;2022-08-19T14:01:45;8.65;;;7.75;;
48241;SDS011;34041;51.812;4.622;2022-08-19T14:04:46;8.10;;;7.17;;
48241;SDS011;34041;51.812;4.622;2022-08-19T14:07:46;9.27;;;7.53;;
48241;SDS011;34041;51.812;4.622;2022-08-19T14:10:47;9.52;;;7.18;;
48241;SDS011;34041;51.812;4.622;2022-08-19T14:13:48;7.30;;;6.45;;
48241;SDS011;34041;51.812;4.622;2022-08-19T14:16:49;10.00;;;7.15;;
48241;SDS011;34041;51.812;4.622;2022-08-19T14:19:49;8.95;;;6.47;;
48241;SDS011;34041;51.812;4.622;2022-08-19T14:22:49;7.93;;;6.07;;
48241;SDS011;34041;51.812;4.622;2022-08-19T14:25:49;8.13;;;6.37;;
48241;SDS011;34041;51.812;4.622;2022-08-19T14:28:50;5.80;;;5.03;;
48241;SDS011;34041;51.812;4.622;2022-08-19T14:31:51;6.25;;;4.38;;
48241;SDS011;34041;51.812;4.622;2022-08-19T14:34:52;6.60;;;4.15;;
48241;SDS011;34041;51.812;4.622;2022-08-19T14:37:53;4.38;;;3.30;;
48241;SDS011;34041;51.812;4.622;2022-08-19T14:40:55;6.18;;;3.47;;
48241;SDS011;34041;51.812;4.622;2022-08-19T14:43:57;4.28;;;3.35;;
48241;SDS011;34041;51.812;4.622;2022-08-19T14:46:57;5.10;;;3.17;;
48241;SDS011;34041;51.812;4.622;2022-08-19T14:49:57;5.20;;;4.30;;
48241;SDS011;34041;51.812;4.622;2022-08-19T14:52:58;4.73;;;3.80;;
48241;SDS011;34041;51.812;4.622;2022-08-19T14:55:59;8.38;;;4.47;;
48241;SDS011;34041;51.812;4.622;2022-08-19T14:59:00;5.25;;;3.38;;
48241;SDS011;34041;51.812;4.622;2022-08-19T15:02:01;5.35;;;4.07;;
48241;SDS011;34041;51.812;4.622;2022-08-19T15:05:01;6.03;;;3.27;;
48241;SDS011;34041;51.812;4.622;2022-08-19T15:08:04;8.30;;;3.95;;
48241;SDS011;34041;51.812;4.622;2022-08-19T15:11:12;5.10;;;3.00;;
48241;SDS011;34041;51.812;4.622;2022-08-19T15:14:14;5.22;;;3.30;;
48241;SDS011;34041;51.812;4.622;2022-08-19T15:17:15;6.45;;;3.85;;
48241;SDS011;34041;51.812;4.622;2022-08-19T15:20:16;6.85;;;3.55;;
48241;SDS011;34041;51.812;4.622;2022-08-19T15:23:18;3.28;;;2.97;;
48241;SDS011;34041;51.812;4.622;2022-08-19T15:26:19;5.90;;;3.20;;
48241;SDS011;34041;51.812;4.622;2022-08-19T15:29:19;4.05;;;2.78;;
48241;SDS011;34041;51.812;4.622;2022-08-19T15:32:19;3.38;;;2.33;;
48241;SDS011;34041;51.812;4.622;2022-08-19T15:35:20;4.83;;;2.70;;
48241;SDS011;34041;51.812;4.622;2022-08-19T15:38:21;5.32;;;2.20;;
48241;SDS011;34041;51.812;4.622;2022-08-19T15:41:23;4.38;;;2.13;;
48241;SDS011;34041;51.812;4.622;2022-08-19T15:44:24;6.53;;;2.08;;
48241;SDS011;34041;51.812;4.622;2022-08-19T15:47:25;3.10;;;1.98;;
48241;SDS011;34041;51.812;4.622;2022-08-19T15:50:28;3.65;;;2.22;;
48241;SDS011;34041;51.812;4.622;2022-08-19T15:53:28;3.38;;;1.90;;
48241;SDS011;34041;51.812;4.622;2022-08-19T15:56:28;4.37;;;1.97;;
48241;SDS011;34041;51.812;4.622;2022-08-19T15:59:47;5.25;;;1.50;;
48241;SDS011;34041;51.812;4.622;2022-08-19T16:03:06;7.30;;;1.90;;
48241;SDS011;34041;51.812;4.622;2022-08-19T16:06:33;4.30;;;1.77;;
48241;SDS011;34041;51.812;4.622;2022-08-19T16:09:34;2.25;;;1.17;;
48241;SDS011;34041;51.812;4.622;2022-08-19T16:12:35;1.80;;;1.02;;
48241;SDS011;34041;51.812;4.622;2022-08-19T16:15:35;2.88;;;1.67;;
48241;SDS011;34041;51.812;4.622;2022-08-19T16:18:35;2.87;;;1.10;;
48241;SDS011;34041;51.812;4.622;2022-08-19T16:21:37;2.92;;;1.17;;
48241;SDS011;34041;51.812;4.622;2022-08-19T16:24:39;1.70;;;1.10;;
48241;SDS011;34041;51.812;4.622;2022-08-19T16:27:39;2.28;;;0.93;;
48241;SDS011;34041;51.812;4.622;2022-08-19T16:30:40;2.47;;;0.82;;
48241;SDS011;34041;51.812;4.622;2022-08-19T16:33:40;1.17;;;0.70;;
48241;SDS011;34041;51.812;4.622;2022-08-19T16:36:41;3.85;;;0.82;;
48241;SDS011;34041;51.812;4.622;2022-08-19T16:39:42;2.35;;;0.77;;
48241;SDS011;34041;51.812;4.622;2022-08-19T16:42:42;0.85;;;0.60;;
48241;SDS011;34041;51.812;4.622;2022-08-19T16:45:43;2.08;;;1.08;;
48241;SDS011;34041;51.812;4.622;2022-08-19T16:48:44;1.50;;;0.90;;
48241;SDS011;34041;51.812;4.622;2022-08-19T16:51:45;1.20;;;0.63;;
48241;SDS011;34041;51.812;4.622;2022-08-19T16:54:45;4.50;;;1.00;;
48241;SDS011;34041;51.812;4.622;2022-08-19T16:57:46;1.30;;;0.85;;
48241;SDS011;34041;51.812;4.622;2022-08-19T17:00:46;5.63;;;0.70;;
48241;SDS011;34041;51.812;4.622;2022-08-19T17:03:48;3.13;;;1.02;;
48241;SDS011;34041;51.812;4.622;2022-08-19T17:06:50;1.65;;;0.98;;
48241;SDS011;34041;51.812;4.622;2022-08-19T17:09:51;3.38;;;1.27;;
48241;SDS011;34041;51.812;4.622;2022-08-19T17:12:51;1.83;;;1.20;;
48241;SDS011;34041;51.812;4.622;2022-08-19T17:15:52;1.50;;;1.00;;
48241;SDS011;34041;51.812;4.622;2022-08-19T17:18:54;2.53;;;1.20;;
48241;SDS011;34041;51.812;4.622;2022-08-19T17:21:54;4.03;;;1.98;;
48241;SDS011;34041;51.812;4.622;2022-08-19T17:24:56;3.25;;;1.60;;
48241;SDS011;34041;51.812;4.622;2022-08-19T17:27:57;4.47;;;2.43;;
48241;SDS011;34041;51.812;4.622;2022-08-19T17:30:57;2.97;;;1.73;;
48241;SDS011;34041;51.812;4.622;2022-08-19T17:33:58;3.70;;;2.20;;
48241;SDS011;34041;51.812;4.622;2022-08-19T17:36:58;4.47;;;2.22;;
48241;SDS011;34041;51.812;4.622;2022-08-19T17:39:59;5.47;;;1.50;;
48241;SDS011;34041;51.812;4.622;2022-08-19T17:43:00;4.15;;;1.95;;
48241;SDS011;34041;51.812;4.622;2022-08-19T17:46:02;2.95;;;2.63;;
48241;SDS011;34041;51.812;4.622;2022-08-19T17:49:02;4.13;;;2.08;;
48241;SDS011;34041;51.812;4.622;2022-08-19T17:52:03;3.40;;;2.23;;
48241;SDS011;34041;51.812;4.622;2022-08-19T17:55:04;2.70;;;1.90;;
48241;SDS011;34041;51.812;4.622;2022-08-19T17:58:04;3.25;;;1.90;;
48241;SDS011;34041;51.812;4.622;2022-08-19T18:01:08;2.57;;;1.73;;
48241;SDS011;34041;51.812;4.622;2022-08-19T18:04:10;3.40;;;1.88;;
48241;SDS011;34041;51.812;4.622;2022-08-19T18:07:10;1.75;;;1.30;;
48241;SDS011;34041;51.812;4.622;2022-08-19T18:10:10;2.77;;;1.73;;
48241;SDS011;34041;51.812;4.622;2022-08-19T18:13:11;2.63;;;1.42;;